Time;durP1;ratioP1;P1;durP2;ratioP2;P2;SDS_P1;SDS_P2;PMS_P1;PMS_P2;Temp;Humidity;BMP_temperature;BMP_pressure;BME280_temperature;BME280_humidity;BME280_pressure;Samples;Min_cycle;Max_cycle;Signal;HPM_P1;HPM_P2
2023/09/16 00:01:48;;;;;;;;;;;17.50;6.50;;;;;;5092542;28;19993;-71
2023/09/16 00:04:14;;;;;;;;;;;17.50;92.20;;;;;;5122205;27;19966;-71
2023/09/16 00:06:39;;;;;;;;;;;17.40;1.00;;;;;;5092249;28;19928;-71
2023/09/16 00:09:05;;;;;;;;;;;17.40;3.80;;;;;;5092915;28;19943;-72
2023/09/16 00:11:32;;;;;;;;;;;17.30;1.00;;;;;;5075076;28;19931;-72
2023/09/16 00:13:57;;;;;;;;;;;17.30;4.50;;;;;;5111157;27;19924;-72
2023/09/16 00:16:23;;;;;;;;;;;17.30;20.20;;;;;;5092672;28;19976;-71
2023/09/16 00:18:48;;;;;;;;;;;17.20;99.90;;;;;;5110728;28;19923;-72
2023/09/16 00:21:14;;;;;;;;;;;17.20;99.90;;;;;;5113938;27;19931;-72
2023/09/16 00:23:39;;;;;;;;;;;17.10;99.90;;;;;;5117660;27;19932;-71
2023/09/16 00:26:05;;;;;;;;;;;17.10;99.90;;;;;;5110122;28;19930;-72
2023/09/16 00:28:32;;;;;;;;;;;17.00;99.90;;;;;;5110641;28;19947;-71
2023/09/16 00:30:59;;;;;;;;;;;17.00;1.00;;;;;;5125154;27;19923;-72
2023/09/16 00:33:25;;;;;;;;;;;16.90;2.70;;;;;;5110255;28;20018;-72
2023/09/16 00:35:50;;;;;;;;;;;16.90;99.90;;;;;;5096224;27;20060;-71
2023/09/16 00:38:16;;;;;;;;;;;16.80;99.90;;;;;;5128407;27;19971;-71
2023/09/16 00:40:42;;;;;;;;;;;16.80;99.90;;;;;;5121776;27;19934;-71
2023/09/16 00:43:07;;;;;;;;;;;16.70;1.00;;;;;;5110102;28;19935;-72
2023/09/16 00:45:33;;;;;;;;;;;16.60;99.90;;;;;;5114155;27;19937;-71
2023/09/16 00:47:59;;;;;;;;;;;16.60;41.60;;;;;;5128672;27;20014;-71
2023/09/16 00:50:25;;;;;;;;;;;16.50;99.90;;;;;;5110008;28;19974;-72
2023/09/16 00:52:53;;;;;;;;;;;16.50;98.90;;;;;;5095560;28;20006;-71
2023/09/16 00:55:18;;;;;;;;;;;16.40;1.00;;;;;;5107760;28;19924;-71
2023/09/16 00:57:46;;;;;;;;;;;16.40;99.90;;;;;;5116956;28;19924;-71
2023/09/16 01:00:12;;;;;;;;;;;16.30;1.00;;;;;;5103142;28;20351;-71
2023/09/16 01:02:37;;;;;;;;;;;16.30;99.90;;;;;;5109464;28;19923;-71
2023/09/16 01:05:04;;;;;;;;;;;16.30;1.00;;;;;;5102913;28;20404;-71
2023/09/16 01:07:30;;;;;;;;;;;16.20;99.90;;;;;;5120620;28;19923;-71
2023/09/16 01:09:56;;;;;;;;;;;16.20;99.90;;;;;;5121356;28;19927;-71
2023/09/16 01:12:22;;;;;;;;;;;16.20;1.00;;;;;;5118154;28;19923;-71
2023/09/16 01:14:47;;;;;;;;;;;16.20;7.90;;;;;;5106777;28;19977;-71
2023/09/16 01:17:24;;;;;;;;;;;16.10;99.90;;;;;;5115377;28;19947;-71
2023/09/16 01:20:01;;;;;;;;;;;16.10;90.50;;;;;;5121941;28;19924;-71
2023/09/16 01:22:27;;;;;;;;;;;16.10;99.90;;;;;;5094553;28;19957;-72
2023/09/16 01:24:59;;;;;;;;;;;16.00;99.90;;;;;;5074537;28;20405;-71
2023/09/16 01:27:24;;;;;;;;;;;16.00;99.90;;;;;;5120066;28;20006;-70
2023/09/16 01:29:53;;;;;;;;;;;15.90;1.00;;;;;;5123733;28;20014;-71
2023/09/16 01:32:21;;;;;;;;;;;15.90;1.00;;;;;;5079232;28;20386;-71
2023/09/16 01:34:49;;;;;;;;;;;15.90;1.00;;;;;;5109505;28;19974;-70
2023/09/16 01:37:16;;;;;;;;;;;15.90;99.90;;;;;;5109705;28;20446;-71
2023/09/16 01:39:44;;;;;;;;;;;15.90;1.00;;;;;;5109491;28;19947;-71
2023/09/16 01:42:09;;;;;;;;;;;15.80;1.00;;;;;;5117917;28;19923;-71
2023/09/16 01:44:35;;;;;;;;;;;15.90;1.00;;;;;;5087116;28;19977;-71
2023/09/16 01:47:00;;;;;;;;;;;15.80;1.00;;;;;;5105929;28;19934;-71
2023/09/16 01:49:26;;;;;;;;;;;15.80;1.00;;;;;;5118014;28;20019;-71
2023/09/16 01:51:51;;;;;;;;;;;15.80;1.00;;;;;;5116626;28;19924;-71
2023/09/16 01:54:17;;;;;;;;;;;15.80;1.00;;;;;;5126786;28;19950;-71
2023/09/16 01:56:45;;;;;;;;;;;15.70;1.00;;;;;;5122001;28;20278;-71
2023/09/16 01:59:11;;;;;;;;;;;15.70;1.00;;;;;;5107850;28;19932;-72
2023/09/16 02:01:36;;;;;;;;;;;15.60;27.30;;;;;;5115661;28;19931;-71
2023/09/16 02:04:02;;;;;;;;;;;15.60;46.70;;;;;;5126527;28;20312;-71
2023/09/16 02:06:27;;;;;;;;;;;15.60;85.80;;;;;;5122753;28;20328;-71
2023/09/16 02:08:53;;;;;;;;;;;15.60;90.90;;;;;;5108449;28;20728;-71
2023/09/16 02:11:18;;;;;;;;;;;15.50;99.90;;;;;;5121376;27;19924;-71
2023/09/16 02:13:44;;;;;;;;;;;15.50;99.90;;;;;;5130705;27;20471;-71
2023/09/16 02:16:10;;;;;;;;;;;15.60;99.90;;;;;;5127420;27;20474;-71
2023/09/16 02:18:35;;;;;;;;;;;15.60;99.90;;;;;;5130629;27;19930;-71
2023/09/16 02:21:01;;;;;;;;;;;15.60;99.90;;;;;;5115436;27;19923;-71
2023/09/16 02:23:27;;;;;;;;;;;15.60;99.90;;;;;;5112709;27;19932;-71
2023/09/16 02:25:52;;;;;;;;;;;15.60;99.90;;;;;;5113141;27;19931;-71
2023/09/16 02:28:18;;;;;;;;;;;15.60;99.90;;;;;;5102270;27;19930;-71
2023/09/16 02:30:43;;;;;;;;;;;15.60;99.90;;;;;;5098089;28;19951;-71
2023/09/16 02:33:09;;;;;;;;;;;15.50;99.90;;;;;;5094857;28;19924;-71
2023/09/16 02:35:34;;;;;;;;;;;15.60;99.90;;;;;;5095393;27;19932;-71
2023/09/16 02:38:02;;;;;;;;;;;15.50;99.90;;;;;;5113173;28;19923;-71
2023/09/16 02:40:28;;;;;;;;;;;15.50;99.90;;;;;;5112746;27;19924;-71
2023/09/16 02:42:54;;;;;;;;;;;15.50;99.90;;;;;;5113396;27;19924;-71
2023/09/16 02:45:19;;;;;;;;;;;15.50;99.90;;;;;;5112071;27;19969;-71
2023/09/16 02:47:45;;;;;;;;;;;15.40;99.90;;;;;;5112402;27;19924;-71
2023/09/16 02:50:10;;;;;;;;;;;15.40;99.90;;;;;;5111386;27;19939;-71
2023/09/16 02:52:36;;;;;;;;;;;15.40;99.90;;;;;;5113147;27;19924;-71
2023/09/16 02:55:01;;;;;;;;;;;15.30;99.90;;;;;;5112627;27;19924;-71
2023/09/16 02:57:27;;;;;;;;;;;15.40;99.90;;;;;;5125308;27;19924;-71
2023/09/16 02:59:52;;;;;;;;;;;15.30;99.90;;;;;;5113130;27;19977;-70
2023/09/16 03:02:18;;;;;;;;;;;15.30;99.90;;;;;;5112299;28;19924;-71
2023/09/16 03:04:43;;;;;;;;;;;15.30;99.90;;;;;;5111955;28;19923;-71
2023/09/16 03:07:10;;;;;;;;;;;15.30;99.90;;;;;;5094193;28;20369;-71
2023/09/16 03:09:35;;;;;;;;;;;15.20;99.90;;;;;;5125174;27;20049;-72
2023/09/16 03:12:01;;;;;;;;;;;15.20;99.90;;;;;;5112121;27;20011;-71
2023/09/16 03:14:26;;;;;;;;;;;15.30;99.90;;;;;;5112221;27;19924;-71
2023/09/16 03:16:52;;;;;;;;;;;15.20;99.90;;;;;;5112051;28;20432;-71
2023/09/16 03:19:18;;;;;;;;;;;15.20;99.90;;;;;;5112071;27;19935;-71
2023/09/16 03:21:43;;;;;;;;;;;15.20;99.90;;;;;;5112243;27;19924;-71
2023/09/16 03:24:09;;;;;;;;;;;15.20;99.90;;;;;;5121639;27;19931;-71
2023/09/16 03:26:34;;;;;;;;;;;15.20;99.90;;;;;;5110104;27;19923;-71
2023/09/16 03:29:01;;;;;;;;;;;15.20;99.90;;;;;;5125747;27;19923;-71
2023/09/16 03:31:27;;;;;;;;;;;15.20;99.90;;;;;;5128397;27;20408;-71
2023/09/16 03:33:52;;;;;;;;;;;15.20;99.90;;;;;;5097497;28;19923;-71
2023/09/16 03:36:18;;;;;;;;;;;15.20;99.90;;;;;;5122191;27;19927;-71
2023/09/16 03:38:48;;;;;;;;;;;15.20;99.90;;;;;;5111021;28;19928;-71
2023/09/16 03:41:15;;;;;;;;;;;15.20;99.90;;;;;;5110880;27;19930;-71
2023/09/16 03:43:40;;;;;;;;;;;15.20;99.90;;;;;;5119583;27;20048;-71
2023/09/16 03:46:06;;;;;;;;;;;15.20;99.90;;;;;;5128454;27;20579;-71
2023/09/16 03:48:31;;;;;;;;;;;15.20;99.90;;;;;;5109743;27;19923;-71
2023/09/16 03:50:57;;;;;;;;;;;15.20;99.90;;;;;;5129342;27;20411;-71
2023/09/16 03:53:25;;;;;;;;;;;15.20;99.90;;;;;;5123874;27;19924;-71
2023/09/16 03:55:54;;;;;;;;;;;15.20;99.90;;;;;;5109508;27;20442;-71
2023/09/16 03:58:20;;;;;;;;;;;15.20;99.90;;;;;;5110959;27;19923;-71
2023/09/16 04:00:45;;;;;;;;;;;15.20;99.90;;;;;;5111573;27;19946;-71
2023/09/16 04:03:11;;;;;;;;;;;15.20;99.90;;;;;;5119884;27;19924;-71
2023/09/16 04:05:37;;;;;;;;;;;15.20;99.90;;;;;;5123974;27;20393;-71
2023/09/16 04:08:02;;;;;;;;;;;15.20;99.90;;;;;;5123810;27;19924;-71
2023/09/16 04:10:28;;;;;;;;;;;15.20;99.90;;;;;;5131048;27;19923;-71
2023/09/16 04:12:53;;;;;;;;;;;15.20;99.90;;;;;;5127925;27;20271;-71
2023/09/16 04:15:19;;;;;;;;;;;15.20;99.90;;;;;;5110831;28;20290;-71
2023/09/16 04:17:44;;;;;;;;;;;15.20;99.90;;;;;;5110795;27;19927;-70
2023/09/16 04:20:10;;;;;;;;;;;15.20;99.90;;;;;;5098470;28;20018;-71
2023/09/16 04:22:36;;;;;;;;;;;15.20;99.90;;;;;;5110237;27;19931;-71
2023/09/16 04:25:01;;;;;;;;;;;15.20;99.90;;;;;;5100481;28;19923;-71
2023/09/16 04:27:27;;;;;;;;;;;15.20;99.90;;;;;;5111018;27;19931;-71
2023/09/16 04:29:53;;;;;;;;;;;15.20;99.90;;;;;;5111212;27;19930;-72
2023/09/16 04:32:18;;;;;;;;;;;15.20;99.90;;;;;;5110937;28;19928;-71
2023/09/16 04:34:44;;;;;;;;;;;15.10;99.90;;;;;;5111134;27;19939;-71
2023/09/16 04:37:09;;;;;;;;;;;15.20;99.90;;;;;;5110407;27;20164;-71
2023/09/16 04:39:35;;;;;;;;;;;15.10;99.90;;;;;;5110878;27;19923;-71
2023/09/16 04:42:02;;;;;;;;;;;15.10;99.90;;;;;;5110457;28;19935;-71
2023/09/16 04:44:28;;;;;;;;;;;15.10;99.90;;;;;;5111567;28;19924;-71
2023/09/16 04:46:54;;;;;;;;;;;15.10;99.90;;;;;;5111598;27;19924;-71
2023/09/16 04:49:20;;;;;;;;;;;15.10;99.90;;;;;;5110786;27;19935;-71
2023/09/16 04:51:45;;;;;;;;;;;15.00;99.90;;;;;;5109477;28;19934;-71
2023/09/16 04:54:11;;;;;;;;;;;15.00;99.90;;;;;;5093153;28;19924;-71
2023/09/16 04:56:37;;;;;;;;;;;14.90;99.90;;;;;;5111184;28;19998;-71
2023/09/16 04:59:02;;;;;;;;;;;14.90;99.90;;;;;;5111785;28;19963;-71
2023/09/16 05:01:31;;;;;;;;;;;14.90;1.00;;;;;;5112360;28;19923;-72
2023/09/16 05:03:57;;;;;;;;;;;14.90;99.90;;;;;;5110328;28;19931;-71
2023/09/16 05:06:22;;;;;;;;;;;14.80;1.00;;;;;;5094517;28;19923;-72
2023/09/16 05:08:48;;;;;;;;;;;14.80;1.00;;;;;;5111740;28;19924;-71
2023/09/16 05:11:14;;;;;;;;;;;14.80;1.00;;;;;;5112793;28;20022;-71
2023/09/16 05:13:39;;;;;;;;;;;14.80;1.00;;;;;;5100834;28;19928;-71
2023/09/16 05:16:05;;;;;;;;;;;14.80;1.00;;;;;;5110644;28;19923;-71
2023/09/16 05:18:31;;;;;;;;;;;14.70;1.00;;;;;;5092950;28;19924;-71
2023/09/16 05:20:56;;;;;;;;;;;14.70;1.00;;;;;;5119005;28;19977;-71
2023/09/16 05:23:23;;;;;;;;;;;14.60;1.00;;;;;;5109739;28;20018;-71
2023/09/16 05:25:49;;;;;;;;;;;14.60;1.00;;;;;;5110187;28;19935;-71
2023/09/16 05:28:15;;;;;;;;;;;14.60;1.00;;;;;;5110338;28;19924;-72
2023/09/16 05:30:42;;;;;;;;;;;14.60;1.00;;;;;;5091398;28;20301;-72
2023/09/16 05:33:10;;;;;;;;;;;14.60;1.00;;;;;;5099393;28;19923;-72
2023/09/16 05:35:37;;;;;;;;;;;14.60;1.00;;;;;;5091585;28;20055;-71
2023/09/16 05:38:03;;;;;;;;;;;14.60;1.00;;;;;;5110128;28;20401;-71
2023/09/16 05:40:29;;;;;;;;;;;14.60;1.00;;;;;;5117956;28;19924;-71
2023/09/16 05:42:54;;;;;;;;;;;14.60;1.00;;;;;;5093719;28;19924;-71
2023/09/16 05:45:20;;;;;;;;;;;14.60;1.00;;;;;;5119814;28;19932;-71
2023/09/16 05:47:48;;;;;;;;;;;14.60;1.00;;;;;;5113504;28;19950;-71
2023/09/16 05:50:13;;;;;;;;;;;14.60;1.00;;;;;;5125480;27;19923;-71
2023/09/16 05:52:39;;;;;;;;;;;14.60;1.00;;;;;;5122103;27;19923;-71
2023/09/16 05:55:05;;;;;;;;;;;14.60;1.00;;;;;;5117734;27;19932;-71
2023/09/16 05:57:30;;;;;;;;;;;14.60;1.00;;;;;;5130475;27;20385;-72
2023/09/16 05:59:56;;;;;;;;;;;14.70;1.00;;;;;;5122142;27;20103;-71
2023/09/16 06:02:21;;;;;;;;;;;14.70;1.00;;;;;;5108841;28;20023;-71
2023/09/16 06:04:49;;;;;;;;;;;14.70;1.00;;;;;;5124619;27;19962;-71
2023/09/16 06:07:15;;;;;;;;;;;14.70;1.00;;;;;;5121519;27;20027;-71
2023/09/16 06:09:40;;;;;;;;;;;14.80;1.00;;;;;;5123501;27;20025;-71
2023/09/16 06:12:06;;;;;;;;;;;14.80;1.00;;;;;;5130305;27;19930;-71
2023/09/16 06:14:32;;;;;;;;;;;14.80;1.00;;;;;;5127844;27;19924;-71
2023/09/16 06:16:57;;;;;;;;;;;14.80;1.00;;;;;;5126120;27;19927;-72
2023/09/16 06:19:23;;;;;;;;;;;14.90;1.00;;;;;;5107308;27;20397;-71
2023/09/16 06:21:48;;;;;;;;;;;14.90;1.00;;;;;;5105477;28;19923;-71
2023/09/16 06:24:14;;;;;;;;;;;15.00;1.00;;;;;;5122811;27;20002;-71
2023/09/16 06:26:39;;;;;;;;;;;15.00;1.00;;;;;;5112643;28;19937;-71
2023/09/16 06:29:05;;;;;;;;;;;15.00;1.00;;;;;;5112651;28;19931;-71
2023/09/16 06:31:30;;;;;;;;;;;15.10;1.00;;;;;;5102838;28;19931;-71
2023/09/16 06:33:56;;;;;;;;;;;15.10;1.00;;;;;;5112715;27;19923;-71
2023/09/16 06:36:22;;;;;;;;;;;15.20;1.00;;;;;;5102085;28;19971;-71
2023/09/16 06:38:47;;;;;;;;;;;15.20;1.00;;;;;;5112682;28;19934;-71
2023/09/16 06:41:13;;;;;;;;;;;15.30;1.00;;;;;;5094555;28;19924;-71
2023/09/16 06:43:38;;;;;;;;;;;15.30;1.00;;;;;;5112665;27;19930;-71
2023/09/16 06:46:05;;;;;;;;;;;15.30;1.00;;;;;;5112786;27;19924;-71
2023/09/16 06:48:30;;;;;;;;;;;15.40;1.00;;;;;;5112549;27;20458;-71
2023/09/16 06:50:56;;;;;;;;;;;15.40;1.00;;;;;;5095893;27;19958;-71
2023/09/16 06:53:21;;;;;;;;;;;15.50;1.00;;;;;;5112703;27;19984;-71
2023/09/16 06:55:47;;;;;;;;;;;15.50;1.00;;;;;;5112303;27;20397;-71
2023/09/16 06:58:13;;;;;;;;;;;15.60;1.00;;;;;;5109875;27;19928;-72
2023/09/16 07:00:39;;;;;;;;;;;15.60;1.00;;;;;;5117736;27;20317;-72
2023/09/16 07:03:05;;;;;;;;;;;15.60;1.00;;;;;;5112416;27;19924;-72
2023/09/16 07:05:31;;;;;;;;;;;15.70;1.00;;;;;;5111338;27;19928;-73
2023/09/16 07:07:56;;;;;;;;;;;15.70;1.00;;;;;;5111440;27;19924;-73
2023/09/16 07:10:22;;;;;;;;;;;15.80;1.00;;;;;;5091909;28;19958;-72
2023/09/16 07:12:47;;;;;;;;;;;15.90;1.00;;;;;;5113832;27;20371;-72
2023/09/16 07:15:14;;;;;;;;;;;15.90;1.00;;;;;;5108103;28;19924;-73
2023/09/16 07:17:39;;;;;;;;;;;16.00;1.00;;;;;;5112298;27;19939;-72
2023/09/16 07:20:05;;;;;;;;;;;16.00;1.00;;;;;;5119720;27;19923;-72
2023/09/16 07:22:31;;;;;;;;;;;16.10;1.00;;;;;;5115518;27;20297;-72
2023/09/16 07:24:57;;;;;;;;;;;16.10;1.00;;;;;;5102554;28;19923;-72
2023/09/16 07:27:22;;;;;;;;;;;16.20;1.00;;;;;;5110702;28;19932;-72
2023/09/16 07:29:48;;;;;;;;;;;16.20;1.00;;;;;;5111504;27;20494;-72
2023/09/16 07:32:13;;;;;;;;;;;16.30;1.00;;;;;;5110981;28;20302;-72
2023/09/16 07:34:39;;;;;;;;;;;16.40;1.00;;;;;;5114083;27;19931;-72
2023/09/16 07:37:04;;;;;;;;;;;16.40;1.00;;;;;;5122016;27;19924;-72
2023/09/16 07:39:30;;;;;;;;;;;16.50;1.00;;;;;;5114498;27;19981;-72
2023/09/16 07:41:55;;;;;;;;;;;16.60;1.00;;;;;;5114063;27;20023;-73
2023/09/16 07:44:21;;;;;;;;;;;16.70;1.00;;;;;;5111080;27;19928;-72
2023/09/16 07:46:48;;;;;;;;;;;16.70;1.00;;;;;;5111447;28;20049;-72
2023/09/16 07:49:14;;;;;;;;;;;16.80;1.00;;;;;;5114801;27;19928;-72
2023/09/16 07:51:40;;;;;;;;;;;16.80;1.00;;;;;;5104037;27;19927;-72
2023/09/16 07:54:06;;;;;;;;;;;16.90;1.00;;;;;;5111132;28;19924;-72
2023/09/16 07:56:32;;;;;;;;;;;17.00;1.00;;;;;;5111460;27;19924;-72
2023/09/16 07:58:58;;;;;;;;;;;17.00;99.90;;;;;;5110556;28;19973;-72
2023/09/16 08:01:23;;;;;;;;;;;17.10;99.90;;;;;;5080349;28;19931;-72
2023/09/16 08:03:50;;;;;;;;;;;17.20;99.90;;;;;;5072904;28;20132;-72
2023/09/16 08:06:16;;;;;;;;;;;17.20;99.90;;;;;;5109418;28;19924;-72
2023/09/16 08:08:42;;;;;;;;;;;17.20;99.90;;;;;;5105149;27;20051;-72
2023/09/16 08:11:07;;;;;;;;;;;17.20;99.90;;;;;;5108094;27;20389;-72
2023/09/16 08:13:33;;;;;;;;;;;17.30;99.90;;;;;;5093013;28;19924;-72
2023/09/16 08:15:58;;;;;;;;;;;17.40;99.90;;;;;;5102065;27;19963;-72
2023/09/16 08:18:24;;;;;;;;;;;17.50;99.90;;;;;;5111042;27;19923;-72
2023/09/16 08:20:50;;;;;;;;;;;17.60;99.90;;;;;;5110282;28;19934;-72
2023/09/16 08:23:15;;;;;;;;;;;17.70;99.90;;;;;;5113479;27;20278;-73
2023/09/16 08:25:41;;;;;;;;;;;17.80;99.90;;;;;;5111490;27;19931;-72
2023/09/16 08:28:06;;;;;;;;;;;17.80;99.90;;;;;;5111515;27;20023;-72
2023/09/16 08:30:32;;;;;;;;;;;17.90;99.90;;;;;;5111069;27;20016;-72
2023/09/16 08:32:57;;;;;;;;;;;18.00;99.90;;;;;;5107881;27;20003;-73
2023/09/16 08:35:25;;;;;;;;;;;18.00;99.90;;;;;;5101116;28;19954;-72
2023/09/16 08:37:51;;;;;;;;;;;18.20;99.90;;;;;;5091293;28;20018;-72
2023/09/16 08:40:17;;;;;;;;;;;18.20;99.90;;;;;;5109137;28;20437;-73
2023/09/16 08:43:02;;;;;;;;;;;18.30;99.90;;;;;;5109317;28;19931;-73
2023/09/16 08:45:30;;;;;;;;;;;18.40;99.90;;;;;;5107879;28;19923;-72
2023/09/16 08:48:01;;;;;;;;;;;18.50;99.90;;;;;;5107039;28;19934;-72
2023/09/16 08:50:27;;;;;;;;;;;18.60;99.90;;;;;;5109740;27;19928;-72
2023/09/16 08:52:53;;;;;;;;;;;18.70;99.90;;;;;;5106051;28;19924;-72
2023/09/16 08:55:19;;;;;;;;;;;18.90;99.90;;;;;;5102990;28;20337;-72
2023/09/16 08:57:47;;;;;;;;;;;19.00;99.90;;;;;;5112370;28;19924;-72
2023/09/16 09:00:14;;;;;;;;;;;19.20;99.90;;;;;;5129508;27;20013;-72
2023/09/16 09:02:40;;;;;;;;;;;19.50;1.00;;;;;;5091029;28;19924;-72
2023/09/16 09:05:06;;;;;;;;;;;19.60;1.00;;;;;;5109158;28;19924;-72
2023/09/16 09:07:35;;;;;;;;;;;19.80;99.90;;;;;;5109826;28;19931;-72
2023/09/16 09:10:01;;;;;;;;;;;20.00;99.90;;;;;;5110245;28;19924;-72
2023/09/16 09:12:27;;;;;;;;;;;20.20;1.00;;;;;;5112888;28;19934;-73
2023/09/16 09:14:52;;;;;;;;;;;20.40;99.90;;;;;;5119226;28;19923;-72
2023/09/16 09:17:18;;;;;;;;;;;20.50;99.90;;;;;;5090651;28;20029;-72
2023/09/16 09:19:44;;;;;;;;;;;20.60;99.90;;;;;;5110950;28;19928;-72
2023/09/16 09:22:10;;;;;;;;;;;20.90;99.90;;;;;;5097338;28;20334;-72
2023/09/16 09:24:35;;;;;;;;;;;21.50;1.00;;;;;;5115100;27;20505;-73
2023/09/16 09:27:01;;;;;;;;;;;22.40;99.90;;;;;;5097378;28;19974;-72
2023/09/16 09:29:26;;;;;;;;;;;23.50;99.90;;;;;;5113762;28;19924;-72
2023/09/16 09:31:53;;;;;;;;;;;24.40;99.90;;;;;;5095991;28;20060;-73
2023/09/16 09:34:19;;;;;;;;;;;25.10;85.70;;;;;;5113176;27;20402;-73
2023/09/16 09:36:45;;;;;;;;;;;25.70;1.00;;;;;;5114142;28;20456;-73
2023/09/16 09:39:10;;;;;;;;;;;26.00;99.90;;;;;;5113354;27;20063;-72
2023/09/16 09:41:43;;;;;;;;;;;26.30;99.90;;;;;;5113419;28;20026;-73
2023/09/16 09:44:10;;;;;;;;;;;26.80;99.90;;;;;;5113690;27;19923;-73
2023/09/16 09:46:35;;;;;;;;;;;27.30;99.90;;;;;;5095332;28;20416;-73
2023/09/16 09:49:01;;;;;;;;;;;27.50;99.90;;;;;;5115183;27;19931;-71
2023/09/16 09:51:27;;;;;;;;;;;27.40;99.90;;;;;;5114927;27;19924;-71
2023/09/16 09:53:53;;;;;;;;;;;27.50;99.90;;;;;;5094575;28;20271;-71
2023/09/16 09:56:19;;;;;;;;;;;27.60;99.90;;;;;;5115312;27;19939;-71
2023/09/16 09:58:45;;;;;;;;;;;28.10;99.90;;;;;;5118176;27;19927;-71
2023/09/16 10:01:10;;;;;;;;;;;28.30;99.90;;;;;;5095671;28;19935;-72
2023/09/16 10:03:36;;;;;;;;;;;28.40;99.90;;;;;;5113024;27;20001;-71
2023/09/16 10:06:18;;;;;;;;;;;28.60;99.90;;;;;;5094444;28;19924;-71
2023/09/16 10:08:44;;;;;;;;;;;29.00;99.90;;;;;;5112257;27;19927;-71
2023/09/16 10:11:10;;;;;;;;;;;29.30;99.90;;;;;;5113194;28;19946;-71
2023/09/16 10:13:35;;;;;;;;;;;29.30;99.90;;;;;;5113331;27;19924;-71
2023/09/16 10:16:01;;;;;;;;;;;29.00;99.90;;;;;;5112415;28;19924;-71
2023/09/16 10:18:27;;;;;;;;;;;29.00;99.90;;;;;;5114640;27;20006;-71
2023/09/16 10:20:53;;;;;;;;;;;29.10;99.90;;;;;;5113234;28;19924;-71
2023/09/16 10:23:20;;;;;;;;;;;29.40;99.90;;;;;;5094627;28;20002;-71
2023/09/16 10:25:45;;;;;;;;;;;29.60;99.90;;;;;;5112805;28;19935;-71
2023/09/16 10:28:12;;;;;;;;;;;29.80;99.90;;;;;;5113152;27;19951;-71
2023/09/16 10:30:37;;;;;;;;;;;30.10;99.90;;;;;;5094720;28;19969;-71
2023/09/16 10:33:04;;;;;;;;;;;30.20;99.90;;;;;;5112502;27;19927;-71
2023/09/16 10:35:30;;;;;;;;;;;30.40;99.90;;;;;;5094448;28;19969;-71
2023/09/16 10:37:57;;;;;;;;;;;30.40;99.90;;;;;;5094173;28;19930;-75
2023/09/16 10:40:23;;;;;;;;;;;30.50;99.90;;;;;;5095889;28;19924;-75
2023/09/16 10:42:48;;;;;;;;;;;30.60;99.90;;;;;;5097411;28;19930;-75
2023/09/16 10:45:15;;;;;;;;;;;30.70;99.90;;;;;;5113954;27;19931;-75
2023/09/16 10:47:41;;;;;;;;;;;30.80;99.20;;;;;;5114300;27;20271;-75
2023/09/16 10:50:07;;;;;;;;;;;31.20;98.60;;;;;;5110351;28;19930;-74
2023/09/16 10:52:40;;;;;;;;;;;31.50;98.00;;;;;;5112848;27;20042;-74
2023/09/16 10:55:25;;;;;;;;;;;31.70;96.40;;;;;;5107813;28;20353;-75
2023/09/16 10:57:54;;;;;;;;;;;31.70;95.20;;;;;;5089787;28;19924;-75
2023/09/16 11:00:21;;;;;;;;;;;31.60;94.70;;;;;;5113576;27;19924;-74
2023/09/16 11:02:51;;;;;;;;;;;31.70;93.80;;;;;;5110897;28;19931;-75
2023/09/16 11:05:17;;;;;;;;;;;31.80;93.80;;;;;;5092904;28;19939;-75
2023/09/16 11:07:42;;;;;;;;;;;31.80;92.60;;;;;;5111951;27;20347;-75
2023/09/16 11:10:08;;;;;;;;;;;31.90;91.60;;;;;;5111110;27;19924;-74
2023/09/16 11:12:34;;;;;;;;;;;32.10;91.50;;;;;;5110535;28;19924;-74
2023/09/16 11:15:05;;;;;;;;;;;32.30;97.30;;;;;;5116469;27;19972;-75
2023/09/16 11:17:30;;;;;;;;;;;32.50;90.50;;;;;;5112977;27;20018;-74
2023/09/16 11:20:09;;;;;;;;;;;32.50;89.20;;;;;;5118204;27;20018;-75
2023/09/16 11:22:36;;;;;;;;;;;32.50;89.60;;;;;;5114470;27;19924;-76
2023/09/16 11:25:02;;;;;;;;;;;32.40;85.80;;;;;;5113981;27;20018;-75
2023/09/16 11:27:27;;;;;;;;;;;32.40;85.90;;;;;;5115134;27;20023;-75
2023/09/16 11:29:53;;;;;;;;;;;32.40;84.00;;;;;;5108453;28;19931;-75
2023/09/16 11:32:21;;;;;;;;;;;32.40;82.80;;;;;;5115838;27;19931;-75
2023/09/16 11:34:47;;;;;;;;;;;32.40;81.20;;;;;;5094998;28;19972;-75
2023/09/16 11:37:13;;;;;;;;;;;32.30;92.20;;;;;;5091720;28;20448;-75
2023/09/16 11:39:42;;;;;;;;;;;32.40;80.10;;;;;;5109366;28;20060;-74
2023/09/16 11:42:08;;;;;;;;;;;32.60;80.60;;;;;;5112504;27;19928;-74
2023/09/16 11:44:37;;;;;;;;;;;32.80;80.20;;;;;;5110465;28;19980;-76
2023/09/16 11:47:03;;;;;;;;;;;32.90;80.50;;;;;;5110965;28;19923;-75
2023/09/16 11:49:35;;;;;;;;;;;33.10;79.40;;;;;;5111031;28;19924;-75
2023/09/16 11:52:01;;;;;;;;;;;33.30;80.50;;;;;;5116242;27;19930;-75
2023/09/16 11:54:26;;;;;;;;;;;33.40;78.40;;;;;;5110800;28;20002;-75
2023/09/16 11:56:55;;;;;;;;;;;33.40;78.00;;;;;;5095092;27;20068;-75
2023/09/16 11:59:20;;;;;;;;;;;33.40;77.10;;;;;;5114728;27;20014;-75
2023/09/16 12:01:46;;;;;;;;;;;33.30;75.80;;;;;;5112124;27;20168;-75
2023/09/16 12:04:15;;;;;;;;;;;33.30;75.90;;;;;;5110146;28;19978;-75
2023/09/16 12:06:41;;;;;;;;;;;33.30;75.80;;;;;;5109913;28;19931;-75
2023/09/16 12:09:08;;;;;;;;;;;33.30;76.30;;;;;;5110380;28;19999;-75
2023/09/16 12:11:33;;;;;;;;;;;33.30;74.80;;;;;;5110511;28;19957;-75
2023/09/16 12:14:00;;;;;;;;;;;33.50;74.60;;;;;;5110720;28;20015;-75
2023/09/16 12:16:26;;;;;;;;;;;33.60;74.80;;;;;;5091704;28;19924;-75
2023/09/16 12:18:52;;;;;;;;;;;33.60;73.50;;;;;;5092499;28;19970;-75
2023/09/16 12:21:17;;;;;;;;;;;33.60;74.10;;;;;;5113135;27;20382;-75
2023/09/16 12:23:45;;;;;;;;;;;33.70;72.50;;;;;;5110557;27;19931;-75
2023/09/16 12:26:11;;;;;;;;;;;33.70;72.50;;;;;;5109752;27;19930;-75
2023/09/16 12:28:37;;;;;;;;;;;33.70;71.90;;;;;;5091985;28;20006;-75
2023/09/16 12:31:03;;;;;;;;;;;33.80;71.50;;;;;;5110848;27;19928;-74
2023/09/16 12:33:46;;;;;;;;;;;34.00;71.70;;;;;;5110255;27;19927;-75
2023/09/16 12:36:15;;;;;;;;;;;34.30;72.80;;;;;;5110463;28;19924;-75
2023/09/16 12:38:41;;;;;;;;;;;34.40;70.90;;;;;;5091665;28;19924;-75
2023/09/16 12:41:07;;;;;;;;;;;34.10;69.70;;;;;;5110865;27;19931;-74
2023/09/16 12:43:33;;;;;;;;;;;33.80;68.30;;;;;;5105380;28;19924;-74
2023/09/16 12:46:00;;;;;;;;;;;33.40;65.60;;;;;;5112263;27;19924;-74
2023/09/16 12:48:26;;;;;;;;;;;32.70;62.60;;;;;;5076034;28;19924;-75
2023/09/16 12:50:53;;;;;;;;;;;32.00;59.90;;;;;;5110869;28;19965;-74
2023/09/16 12:53:18;;;;;;;;;;;31.50;58.90;;;;;;5109773;28;19924;-74
2023/09/16 12:55:47;;;;;;;;;;;31.80;59.60;;;;;;5112028;27;19947;-74
2023/09/16 12:58:14;;;;;;;;;;;32.30;60.50;;;;;;5102930;28;19924;-75
2023/09/16 13:00:39;;;;;;;;;;;32.90;62.90;;;;;;5095635;28;20325;-75
2023/09/16 13:03:06;;;;;;;;;;;33.20;62.50;;;;;;5123017;27;19923;-75
2023/09/16 13:05:31;;;;;;;;;;;33.20;62.10;;;;;;5103703;27;20361;-75
2023/09/16 13:07:57;;;;;;;;;;;33.20;61.00;;;;;;5122666;27;19973;-75
2023/09/16 13:10:23;;;;;;;;;;;32.70;58.70;;;;;;5111247;28;19983;-75
2023/09/16 13:12:50;;;;;;;;;;;32.20;56.00;;;;;;5122775;28;19970;-75
2023/09/16 13:15:17;;;;;;;;;;;31.80;55.40;;;;;;5127127;28;19924;-76
2023/09/16 13:17:47;;;;;;;;;;;31.70;53.90;;;;;;5115282;28;19963;-74
2023/09/16 13:20:17;;;;;;;;;;;31.60;52.90;;;;;;5111901;28;19923;-72
2023/09/16 13:22:43;;;;;;;;;;;31.80;53.40;;;;;;5110355;28;19928;-76
2023/09/16 13:25:27;;;;;;;;;;;31.90;53.10;;;;;;5109786;28;19930;-76
2023/09/16 13:27:52;;;;;;;;;;;31.70;52.60;;;;;;5091040;28;20328;-76
2023/09/16 13:30:21;;;;;;;;;;;31.50;51.30;;;;;;5109734;28;19923;-76
2023/09/16 13:32:51;;;;;;;;;;;31.70;51.00;;;;;;5109997;28;19931;-76
2023/09/16 13:35:17;;;;;;;;;;;32.10;52.30;;;;;;5097157;28;19931;-72
2023/09/16 13:37:43;;;;;;;;;;;32.40;52.90;;;;;;5109014;28;19935;-73
2023/09/16 13:40:15;;;;;;;;;;;32.60;53.60;;;;;;5109664;28;20386;-73
2023/09/16 13:42:41;;;;;;;;;;;32.80;54.40;;;;;;5099830;28;20286;-72
2023/09/16 13:45:08;;;;;;;;;;;32.90;53.60;;;;;;5128492;28;19923;-72
2023/09/16 13:47:33;;;;;;;;;;;32.70;52.30;;;;;;5109700;28;20389;-72
2023/09/16 13:49:59;;;;;;;;;;;31.90;49.80;;;;;;5109194;28;19973;-72
2023/09/16 13:52:24;;;;;;;;;;;31.10;47.50;;;;;;5096153;28;19924;-73
2023/09/16 13:54:50;;;;;;;;;;;30.60;45.10;;;;;;5116902;28;19924;-73
2023/09/16 13:57:16;;;;;;;;;;;30.10;44.30;;;;;;5108662;28;20374;-73
2023/09/16 13:59:41;;;;;;;;;;;29.60;42.50;;;;;;5109914;28;20014;-72
2023/09/16 14:02:08;;;;;;;;;;;29.20;41.50;;;;;;5095747;28;19950;-72
2023/09/16 14:04:33;;;;;;;;;;;28.90;40.10;;;;;;5108804;28;19978;-72
2023/09/16 14:06:59;;;;;;;;;;;28.60;40.10;;;;;;5091326;28;20382;-72
2023/09/16 14:09:24;;;;;;;;;;;28.30;39.80;;;;;;5094402;28;19930;-72
2023/09/16 14:11:50;;;;;;;;;;;28.20;39.40;;;;;;5112577;27;20011;-73
2023/09/16 14:14:15;;;;;;;;;;;28.20;39.90;;;;;;5112902;27;19924;-72
2023/09/16 14:16:41;;;;;;;;;;;28.10;39.40;;;;;;5112506;28;19928;-72